createdAt,value
2022-12-03T00:00:42.624Z,33.33
2022-12-03T00:02:44.540Z,35.17
2022-12-03T00:04:46.378Z,32.40
2022-12-03T00:06:48.338Z,29.25
2022-12-03T00:08:50.061Z,31.55
2022-12-03T00:10:53.041Z,29.00
2022-12-03T00:12:54.725Z,28.02
2022-12-03T00:15:02.393Z,27.58
2022-12-03T00:17:04.442Z,29.60
2022-12-03T00:19:06.205Z,29.05
2022-12-03T00:21:07.962Z,27.60
2022-12-03T00:23:09.864Z,29.52
2022-12-03T00:25:11.713Z,31.85
2022-12-03T00:27:13.549Z,30.20
2022-12-03T00:29:15.695Z,29.30
2022-12-03T00:31:17.832Z,28.60
2022-12-03T00:33:20.777Z,27.58
2022-12-03T00:35:22.562Z,32.92
2022-12-03T00:37:24.362Z,31.90
2022-12-03T00:39:26.193Z,34.78
2022-12-03T00:41:28.177Z,28.88
2022-12-03T00:43:29.956Z,32.28
2022-12-03T00:45:31.832Z,30.85
2022-12-03T00:47:34.331Z,30.55
2022-12-03T00:49:36.181Z,28.58
2022-12-03T00:51:37.916Z,28.25
2022-12-03T00:53:39.745Z,27.92
2022-12-03T00:55:41.646Z,28.85
2022-12-03T00:57:43.608Z,28.77
2022-12-03T00:59:45.537Z,27.98
2022-12-03T01:01:47.529Z,28.08
2022-12-03T01:03:49.309Z,29.77
2022-12-03T01:05:51.353Z,27.38
2022-12-03T01:07:53.340Z,27.95
2022-12-03T01:09:55.156Z,27.15
2022-12-03T01:11:56.971Z,26.00
2022-12-03T01:13:58.867Z,27.73
2022-12-03T01:16:00.640Z,26.58
2022-12-03T01:18:02.580Z,30.27
2022-12-03T01:20:08.574Z,27.23
2022-12-03T01:22:10.296Z,28.20
2022-12-03T01:24:12.400Z,25.25
2022-12-03T01:26:14.166Z,27.30
2022-12-03T01:28:15.924Z,29.58
2022-12-03T01:30:17.920Z,28.35
2022-12-03T01:32:19.954Z,28.23
2022-12-03T01:34:21.782Z,27.77
2022-12-03T01:36:23.683Z,29.40
2022-12-03T01:38:25.464Z,28.15
2022-12-03T01:40:27.169Z,30.08
2022-12-03T01:42:35.117Z,28.58
2022-12-03T01:44:39.603Z,28.15
2022-12-03T01:46:42.509Z,29.33
2022-12-03T01:48:45.346Z,29.92
2022-12-03T01:50:47.351Z,26.42
2022-12-03T01:52:49.959Z,27.90
2022-12-03T01:54:56.010Z,30.37
2022-12-03T01:56:58.980Z,27.63
2022-12-03T01:59:00.765Z,28.92
2022-12-03T02:01:10.270Z,27.65
2022-12-03T02:03:17.268Z,30.35
2022-12-03T02:05:26.227Z,30.42
2022-12-03T02:07:33.770Z,31.90
2022-12-03T02:09:35.712Z,31.48
2022-12-03T02:11:49.615Z,30.75
2022-12-03T02:16:02.432Z,32.55
2022-12-03T02:18:04.362Z,30.80
2022-12-03T02:20:08.434Z,31.25
2022-12-03T02:22:34.782Z,31.20
2022-12-03T02:25:15.237Z,34.22
2022-12-03T02:27:17.484Z,31.02
2022-12-03T02:29:19.304Z,31.65
2022-12-03T02:31:21.332Z,30.73
2022-12-03T02:33:23.145Z,35.03
2022-12-03T02:35:27.817Z,33.70
2022-12-03T02:37:34.186Z,32.63
2022-12-03T02:39:38.604Z,34.60
2022-12-03T02:41:40.516Z,35.85
2022-12-03T02:43:42.212Z,36.45
2022-12-03T02:45:46.930Z,35.83
2022-12-03T02:47:54.349Z,35.55
2022-12-03T02:49:56.911Z,34.25
2022-12-03T02:51:58.927Z,34.63
2022-12-03T02:54:01.258Z,34.08
2022-12-03T02:56:03.815Z,35.67
2022-12-03T02:58:05.794Z,36.17
2022-12-03T03:00:10.578Z,34.20
2022-12-03T03:02:14.262Z,34.75
2022-12-03T03:04:16.487Z,33.78
2022-12-03T03:06:19.991Z,35.17
2022-12-03T03:10:23.859Z,33.72
2022-12-03T03:12:26.097Z,35.58
2022-12-03T03:14:27.871Z,35.45
2022-12-03T03:16:29.778Z,34.45
2022-12-03T03:18:32.855Z,35.60
2022-12-03T03:20:35.526Z,33.42
2022-12-03T03:22:40.656Z,33.83
2022-12-03T03:24:42.664Z,35.15
2022-12-03T03:26:44.654Z,35.20
2022-12-03T03:28:49.355Z,36.05
2022-12-03T03:30:51.440Z,35.25
2022-12-03T03:32:53.340Z,34.15
2022-12-03T03:34:56.326Z,33.13
2022-12-03T03:36:58.497Z,34.60
2022-12-03T03:39:00.417Z,32.78
2022-12-03T03:41:05.957Z,31.17
2022-12-03T03:43:07.881Z,32.42
2022-12-03T03:45:09.889Z,32.40
2022-12-03T03:47:12.370Z,33.30
2022-12-03T03:49:14.298Z,32.58
2022-12-03T03:51:17.622Z,33.58
2022-12-03T03:53:20.818Z,33.08
2022-12-03T03:55:23.049Z,30.63
2022-12-03T03:57:24.839Z,31.67
2022-12-03T03:59:26.774Z,31.48
2022-12-03T04:01:30.085Z,32.50
2022-12-03T04:03:31.863Z,31.15
2022-12-03T04:05:33.740Z,34.13
2022-12-03T04:07:35.538Z,32.40
2022-12-03T04:09:37.362Z,36.40
2022-12-03T04:11:39.121Z,32.83
2022-12-03T04:13:41.012Z,33.67
2022-12-03T04:15:42.739Z,35.05
2022-12-03T04:17:44.547Z,36.55
2022-12-03T04:19:46.528Z,32.67
2022-12-03T04:21:48.238Z,33.08
2022-12-03T04:23:50.146Z,35.88
2022-12-03T04:25:52.139Z,38.65
2022-12-03T04:27:54.226Z,42.25
2022-12-03T04:29:56.184Z,38.25
2022-12-03T04:31:58.109Z,33.55
2022-12-03T04:33:59.793Z,35.53
2022-12-03T04:36:01.689Z,41.45
2022-12-03T04:38:03.651Z,39.05
2022-12-03T04:40:06.170Z,37.17
2022-12-03T04:42:08.184Z,34.67
2022-12-03T04:44:10.023Z,37.08
2022-12-03T04:46:11.739Z,33.63
2022-12-03T04:48:13.620Z,37.90
2022-12-03T04:50:15.677Z,35.25
2022-12-03T04:52:19.409Z,33.75
2022-12-03T04:54:21.167Z,33.17
2022-12-03T04:56:22.995Z,32.42
2022-12-03T04:58:24.781Z,33.88
2022-12-03T05:00:26.621Z,32.63
2022-12-03T05:02:28.625Z,31.40
2022-12-03T05:04:30.546Z,32.03
2022-12-03T05:06:32.803Z,34.03
2022-12-03T05:08:34.735Z,32.50
2022-12-03T05:10:36.432Z,33.17
2022-12-03T05:12:38.473Z,33.88
2022-12-03T05:14:40.277Z,30.52
2022-12-03T05:16:42.038Z,32.70
2022-12-03T05:18:44.024Z,33.67
2022-12-03T05:20:52.975Z,33.38
2022-12-03T05:22:55.093Z,33.33
2022-12-03T05:24:57.049Z,33.05
2022-12-03T05:26:58.937Z,33.88
2022-12-03T05:29:00.659Z,36.13
2022-12-03T05:31:02.726Z,36.63
2022-12-03T05:33:04.698Z,36.08
2022-12-03T05:35:06.642Z,33.50
2022-12-03T05:37:08.599Z,34.42
2022-12-03T05:39:10.587Z,32.00
2022-12-03T05:41:12.265Z,34.20
2022-12-03T05:43:14.146Z,37.03
2022-12-03T05:45:16.051Z,32.35
2022-12-03T05:47:17.728Z,31.90
2022-12-03T05:49:19.593Z,32.38
2022-12-03T05:51:21.381Z,30.48
2022-12-03T05:53:23.123Z,30.10
2022-12-03T05:55:25.812Z,29.08
2022-12-03T05:57:27.625Z,31.70
2022-12-03T05:59:29.318Z,30.00
2022-12-03T06:01:31.293Z,33.53
2022-12-03T06:03:33.187Z,35.08
2022-12-03T06:05:35.107Z,39.80
2022-12-03T06:07:37.080Z,34.80
2022-12-03T06:09:38.882Z,34.70
2022-12-03T06:11:40.595Z,37.38
2022-12-03T06:13:42.560Z,34.97
2022-12-03T06:15:44.411Z,34.78
2022-12-03T06:17:46.342Z,37.50
2022-12-03T06:19:48.124Z,36.78
2022-12-03T06:21:49.881Z,55.67
2022-12-03T06:23:51.596Z,73.65
2022-12-03T06:25:53.392Z,45.20
2022-12-03T06:27:55.278Z,50.85
2022-12-03T06:29:57.291Z,35.55
2022-12-03T06:31:59.203Z,32.47
2022-12-03T06:34:00.957Z,30.63
2022-12-03T06:36:02.674Z,33.97
2022-12-03T06:38:04.520Z,33.22
2022-12-03T06:40:07.134Z,34.83
2022-12-03T06:42:08.886Z,39.20
2022-12-03T06:44:10.756Z,31.02
2022-12-03T06:46:12.613Z,30.40
2022-12-03T06:48:14.927Z,31.40
2022-12-03T06:50:16.877Z,35.03
2022-12-03T06:52:18.726Z,34.50
2022-12-03T06:54:20.445Z,31.00
2022-12-03T06:56:22.688Z,31.75
2022-12-03T06:58:24.749Z,32.00
2022-12-03T07:00:26.494Z,30.55
2022-12-03T07:02:28.535Z,30.88
2022-12-03T07:04:30.455Z,31.45
2022-12-03T07:06:32.169Z,34.40
2022-12-03T07:08:34.393Z,34.65
2022-12-03T07:10:36.176Z,36.95
2022-12-03T07:12:37.865Z,33.47
2022-12-03T07:14:40.108Z,38.67
2022-12-03T07:16:41.829Z,50.55
2022-12-03T07:18:43.572Z,38.90
2022-12-03T07:20:45.459Z,44.58
2022-12-03T07:22:47.362Z,39.08
2022-12-03T07:24:49.060Z,36.25
2022-12-03T07:26:50.917Z,47.67
2022-12-03T07:28:52.783Z,32.92
2022-12-03T07:30:54.995Z,30.65
2022-12-03T07:32:56.892Z,30.38
2022-12-03T07:34:58.793Z,31.83
2022-12-03T07:37:00.473Z,32.83
2022-12-03T07:39:02.414Z,31.42
2022-12-03T07:41:04.298Z,36.40
2022-12-03T07:43:06.072Z,38.63
2022-12-03T07:45:08.706Z,41.33
2022-12-03T07:47:10.602Z,38.53
2022-12-03T07:49:12.368Z,33.65
2022-12-03T07:51:15.508Z,37.88
2022-12-03T07:53:17.541Z,35.15
2022-12-03T07:55:19.224Z,39.55
2022-12-03T07:57:21.078Z,40.08
2022-12-03T07:59:22.962Z,41.28
2022-12-03T08:01:24.784Z,37.20
2022-12-03T08:03:26.690Z,36.25
2022-12-03T08:05:28.872Z,36.90
2022-12-03T08:07:30.575Z,46.20
2022-12-03T08:09:32.338Z,47.25
2022-12-03T08:11:34.065Z,44.88
2022-12-03T08:13:35.746Z,44.58
2022-12-03T08:15:39.667Z,42.90
2022-12-03T08:17:42.769Z,42.05
2022-12-03T08:19:47.149Z,44.80
2022-12-03T08:21:49.117Z,49.15
2022-12-03T08:23:51.293Z,40.15
2022-12-03T08:25:53.223Z,37.13
2022-12-03T08:28:11.065Z,38.53
2022-12-03T08:30:16.668Z,37.55
2022-12-03T08:32:18.420Z,35.97
2022-12-03T08:34:26.525Z,35.65
2022-12-03T08:36:33.837Z,41.28
2022-12-03T08:38:35.577Z,37.97
2022-12-03T08:40:41.650Z,42.95
2022-12-03T08:42:43.530Z,39.92
2022-12-03T08:44:45.348Z,41.03
2022-12-03T08:46:53.234Z,39.17
2022-12-03T08:48:55.362Z,34.55
2022-12-03T08:51:21.607Z,35.35
2022-12-03T08:53:26.494Z,35.30
2022-12-03T08:55:34.207Z,36.13
2022-12-03T08:57:36.290Z,37.35
2022-12-03T08:59:40.309Z,38.00
2022-12-03T09:01:47.324Z,39.67
2022-12-03T09:03:54.089Z,39.13
2022-12-03T09:05:55.936Z,41.58
2022-12-03T09:07:57.779Z,44.15
2022-12-03T09:09:59.520Z,42.53
2022-12-03T09:12:01.336Z,46.05
2022-12-03T09:14:03.515Z,40.75
2022-12-03T09:16:05.653Z,41.47
2022-12-03T09:18:07.465Z,42.78
2022-12-03T09:20:09.740Z,42.58
2022-12-03T09:22:11.492Z,42.65
2022-12-03T09:24:13.385Z,43.40
2022-12-03T09:26:15.220Z,50.08
2022-12-03T09:28:16.961Z,44.58
2022-12-03T09:30:18.936Z,44.53
2022-12-03T09:32:20.763Z,39.88
2022-12-03T09:34:22.566Z,41.33
2022-12-03T09:36:24.496Z,42.67
2022-12-03T09:38:26.837Z,43.72
2022-12-03T09:40:29.264Z,48.10
2022-12-03T09:42:31.065Z,55.97
2022-12-03T09:44:34.634Z,58.55
2022-12-03T09:48:40.469Z,46.83
2022-12-03T09:50:42.814Z,52.47
2022-12-03T09:52:44.669Z,55.03
2022-12-03T09:54:47.662Z,55.22
2022-12-03T09:56:49.692Z,53.20
2022-12-03T09:58:51.559Z,53.42
2022-12-03T10:00:53.534Z,51.08
2022-12-03T10:02:59.279Z,43.28
2022-12-03T10:05:01.073Z,43.38
2022-12-03T10:07:02.896Z,52.25
2022-12-03T10:09:04.827Z,47.78
2022-12-03T10:11:06.550Z,45.13
2022-12-03T10:13:13.412Z,43.03
2022-12-03T10:15:17.996Z,41.42
2022-12-03T10:17:19.857Z,41.45
2022-12-03T10:19:33.774Z,46.35
2022-12-03T10:23:38.134Z,44.50
2022-12-03T10:25:51.480Z,46.58
2022-12-03T10:27:59.860Z,45.63
2022-12-03T10:30:04.208Z,45.35
2022-12-03T10:32:08.941Z,38.53
2022-12-03T10:34:11.180Z,51.10
2022-12-03T10:36:31.029Z,51.72
2022-12-03T10:38:32.899Z,54.10
2022-12-03T10:40:37.072Z,57.63
2022-12-03T10:42:40.782Z,50.88
2022-12-03T10:44:42.529Z,50.65
2022-12-03T10:46:45.497Z,48.58
2022-12-03T10:49:08.344Z,41.20
2022-12-03T10:51:20.330Z,41.95
2022-12-03T10:53:26.327Z,42.13
2022-12-03T10:55:34.294Z,43.45
2022-12-03T10:57:36.856Z,40.33
2022-12-03T10:59:41.672Z,43.95
2022-12-03T11:03:46.176Z,66.53
2022-12-03T11:05:48.831Z,44.88
2022-12-03T11:07:50.634Z,50.28
2022-12-03T11:09:53.941Z,90.50
2022-12-03T11:11:56.192Z,46.80
2022-12-03T11:14:03.529Z,54.30
2022-12-03T11:16:07.205Z,48.38
2022-12-03T11:18:09.021Z,53.78
2022-12-03T11:20:22.859Z,44.03
2022-12-03T11:22:39.553Z,52.63
2022-12-03T11:24:41.279Z,50.60
2022-12-03T11:26:42.918Z,49.72
2022-12-03T11:28:47.735Z,53.88
2022-12-03T11:30:49.452Z,65.00
2022-12-03T11:33:00.684Z,48.40
2022-12-03T11:35:02.555Z,44.72
2022-12-03T11:37:10.008Z,46.63
2022-12-03T11:39:11.770Z,47.47
2022-12-03T11:41:20.891Z,47.83
2022-12-03T11:43:54.296Z,48.58
2022-12-03T11:46:01.031Z,40.20
2022-12-03T11:48:13.637Z,40.85
2022-12-03T11:50:18.243Z,42.05
2022-12-03T11:52:44.318Z,50.92
2022-12-03T11:54:52.039Z,49.45
2022-12-03T11:56:54.671Z,38.50
2022-12-03T11:59:02.773Z,57.70
2022-12-03T12:01:06.802Z,48.47
2022-12-03T12:03:33.352Z,59.40
2022-12-03T12:05:35.545Z,39.38
2022-12-03T12:07:37.502Z,40.92
2022-12-03T12:09:50.896Z,82.57
2022-12-03T12:11:52.785Z,51.40
2022-12-03T12:13:56.129Z,48.85
2022-12-03T12:16:02.804Z,127.40
2022-12-03T12:18:35.175Z,62.22
2022-12-03T12:20:37.325Z,68.82
2022-12-03T12:22:39.142Z,93.07
2022-12-03T12:24:40.785Z,57.20
2022-12-03T12:26:51.018Z,51.70
2022-12-03T12:28:52.735Z,58.75
2022-12-03T12:30:54.465Z,50.95
2022-12-03T12:33:23.338Z,47.25
2022-12-03T12:35:27.367Z,59.10
2022-12-03T12:37:56.803Z,48.00
2022-12-03T12:40:06.743Z,48.92
2022-12-03T12:42:28.197Z,46.38
2022-12-03T12:44:29.879Z,44.03
2022-12-03T12:46:48.311Z,53.83
2022-12-03T12:48:50.420Z,45.08
2022-12-03T12:51:00.215Z,53.08
2022-12-03T12:53:11.399Z,64.72
2022-12-03T12:55:13.130Z,48.38
2022-12-03T12:57:21.580Z,71.70
2022-12-03T12:59:23.498Z,58.63
2022-12-03T13:01:30.655Z,52.35
2022-12-03T13:03:34.725Z,54.60
2022-12-03T13:05:42.276Z,72.20
2022-12-03T13:07:45.069Z,47.70
2022-12-03T13:09:46.846Z,49.00
2022-12-03T13:11:58.613Z,54.50
2022-12-03T13:14:10.578Z,45.05
2022-12-03T13:16:19.292Z,51.53
2022-12-03T13:18:27.417Z,46.53
2022-12-03T13:20:33.364Z,48.42
2022-12-03T13:22:35.102Z,67.93
2022-12-03T13:24:43.356Z,60.30
2022-12-03T13:26:45.238Z,93.15
2022-12-03T13:28:46.961Z,56.17
2022-12-03T13:30:48.896Z,63.65
2022-12-03T13:32:50.782Z,85.68
2022-12-03T13:34:52.532Z,50.85
2022-12-03T13:36:58.483Z,66.05
2022-12-03T13:39:00.929Z,53.80
2022-12-03T13:41:03.439Z,64.90
2022-12-03T13:43:15.339Z,81.28
2022-12-03T13:45:17.214Z,66.38
2022-12-03T13:47:21.270Z,48.40
2022-12-03T13:49:24.563Z,48.17
2022-12-03T13:51:29.854Z,50.30
2022-12-03T13:53:38.779Z,45.10
2022-12-03T13:55:45.618Z,48.10
2022-12-03T13:57:47.407Z,57.20
2022-12-03T13:59:49.157Z,65.25
2022-12-03T14:01:51.043Z,52.60
2022-12-03T14:03:53.010Z,56.97
2022-12-03T14:05:54.740Z,58.42
2022-12-03T14:07:56.719Z,69.38
2022-12-03T14:09:58.703Z,77.80
2022-12-03T14:12:00.450Z,71.80
2022-12-03T14:14:02.315Z,90.70
2022-12-03T14:16:04.259Z,130.00
2022-12-03T14:18:06.129Z,61.55
2022-12-03T14:20:08.401Z,92.05
2022-12-03T14:22:10.336Z,104.07
2022-12-03T14:24:12.076Z,77.80
2022-12-03T14:26:14.153Z,96.03
2022-12-03T14:28:15.905Z,107.15
2022-12-03T14:30:17.685Z,76.80
2022-12-03T14:32:19.520Z,69.93
2022-12-03T14:34:21.706Z,48.53
2022-12-03T14:36:23.446Z,63.65
2022-12-03T14:38:25.441Z,53.75
2022-12-03T14:40:27.335Z,54.30
2022-12-03T14:42:29.105Z,53.47
2022-12-03T14:44:30.996Z,65.65
2022-12-03T14:46:32.882Z,56.38
2022-12-03T14:48:34.633Z,73.88
2022-12-03T14:50:36.830Z,65.43
2022-12-03T14:52:38.589Z,105.25
2022-12-03T14:54:41.323Z,62.08
2022-12-03T14:56:43.106Z,58.87
2022-12-03T14:58:44.954Z,67.65
2022-12-03T15:00:46.632Z,97.30
2022-12-03T15:02:48.644Z,91.63
2022-12-03T15:04:50.607Z,57.47
2022-12-03T15:06:52.366Z,79.68
2022-12-03T15:08:54.189Z,155.35
2022-12-03T15:10:56.327Z,110.57
2022-12-03T15:12:58.043Z,93.57
2022-12-03T15:15:00.528Z,89.03
2022-12-03T15:17:02.318Z,229.48
2022-12-03T15:19:04.127Z,181.32
2022-12-03T15:21:07.481Z,89.20
2022-12-03T15:23:14.036Z,83.00
2022-12-03T15:25:16.300Z,91.57
2022-12-03T15:27:18.104Z,142.88
2022-12-03T15:29:21.019Z,76.95
2022-12-03T15:31:22.831Z,71.25
2022-12-03T15:33:24.591Z,80.85
2022-12-03T15:35:26.368Z,99.60
2022-12-03T15:37:28.081Z,73.20
2022-12-03T15:39:29.884Z,76.30
2022-12-03T15:41:31.841Z,59.08
2022-12-03T15:43:33.553Z,99.93
2022-12-03T15:45:36.055Z,58.67
2022-12-03T15:47:37.816Z,93.65
2022-12-03T15:49:39.511Z,65.78
2022-12-03T15:51:41.414Z,60.08
2022-12-03T15:53:43.200Z,52.35
2022-12-03T15:55:44.900Z,57.13
2022-12-03T15:57:46.838Z,58.72
2022-12-03T15:59:49.199Z,67.75
2022-12-03T16:01:50.928Z,59.55
2022-12-03T16:03:52.768Z,70.22
2022-12-03T16:05:54.785Z,64.10
2022-12-03T16:07:56.624Z,62.35
2022-12-03T16:09:58.398Z,70.47
2022-12-03T16:12:00.192Z,70.95
2022-12-03T16:14:01.907Z,57.50
2022-12-03T16:16:03.851Z,62.80
2022-12-03T16:18:05.874Z,67.57
2022-12-03T16:20:08.405Z,61.72
2022-12-03T16:22:10.629Z,67.72
2022-12-03T16:24:12.397Z,65.55
2022-12-03T16:26:14.125Z,62.53
2022-12-03T16:28:16.144Z,60.85
2022-12-03T16:30:17.999Z,86.03
2022-12-03T16:32:19.729Z,59.20
2022-12-03T16:34:21.634Z,57.88
2022-12-03T16:36:23.587Z,58.88
2022-12-03T16:38:25.298Z,62.72
2022-12-03T16:40:27.165Z,61.45
2022-12-03T16:42:29.152Z,55.17
2022-12-03T16:44:31.137Z,64.85
2022-12-03T16:46:32.993Z,72.97
2022-12-03T16:48:34.776Z,68.43
2022-12-03T16:50:36.502Z,88.15
2022-12-03T16:52:38.470Z,104.72
2022-12-03T16:54:40.237Z,113.95
2022-12-03T16:56:41.977Z,101.00
2022-12-03T16:58:44.257Z,93.90
2022-12-03T17:00:46.025Z,65.65
2022-12-03T17:02:47.971Z,66.45
2022-12-03T17:04:49.906Z,59.38
2022-12-03T17:06:51.739Z,85.78
2022-12-03T17:08:53.423Z,91.47
2022-12-03T17:10:55.336Z,79.25
2022-12-03T17:13:12.450Z,73.72
2022-12-03T17:15:14.250Z,112.70
2022-12-03T17:17:16.039Z,75.20
2022-12-03T17:19:17.941Z,72.55
2022-12-03T17:21:19.691Z,64.63
2022-12-03T17:23:21.635Z,63.67
2022-12-03T17:25:23.615Z,65.93
2022-12-03T17:27:25.340Z,74.18
2022-12-03T17:29:27.251Z,69.88
2022-12-03T17:31:29.155Z,67.93
2022-12-03T17:33:30.914Z,68.00
2022-12-03T17:35:32.797Z,66.43
2022-12-03T17:37:34.560Z,68.88
2022-12-03T17:39:36.284Z,61.88
2022-12-03T17:41:38.130Z,66.32
2022-12-03T17:43:40.196Z,65.97
2022-12-03T17:45:41.899Z,75.03
2022-12-03T17:47:43.744Z,83.95
2022-12-03T17:49:45.549Z,66.80
2022-12-03T17:51:47.290Z,59.53
2022-12-03T17:53:49.053Z,62.17
2022-12-03T17:55:50.857Z,119.97
2022-12-03T17:57:52.541Z,110.97
2022-12-03T17:59:54.407Z,109.03
2022-12-03T18:01:56.315Z,70.68
2022-12-03T18:03:58.119Z,90.90
2022-12-03T18:06:00.160Z,71.30
2022-12-03T18:08:02.009Z,70.65
2022-12-03T18:10:04.139Z,59.17
2022-12-03T18:12:06.292Z,75.97
2022-12-03T18:14:08.032Z,59.08
2022-12-03T18:16:09.823Z,61.40
2022-12-03T18:18:11.848Z,59.78
2022-12-03T18:20:13.825Z,83.63
2022-12-03T18:22:16.517Z,57.95
2022-12-03T18:24:18.325Z,57.63
2022-12-03T18:26:20.316Z,59.58
2022-12-03T18:28:22.074Z,62.05
2022-12-03T18:30:24.265Z,59.40
2022-12-03T18:32:29.488Z,58.92
2022-12-03T18:34:31.676Z,58.78
2022-12-03T18:36:36.007Z,66.97
2022-12-03T18:38:37.984Z,57.75
2022-12-03T18:40:40.377Z,66.10
2022-12-03T18:42:42.160Z,59.53
2022-12-03T18:44:49.452Z,86.95
2022-12-03T18:46:53.999Z,64.88
2022-12-03T18:48:56.542Z,76.60
2022-12-03T18:50:58.223Z,67.57
2022-12-03T18:52:59.997Z,66.32
2022-12-03T18:55:01.935Z,66.22
2022-12-03T18:57:03.828Z,59.55
2022-12-03T18:59:05.595Z,56.97
2022-12-03T19:01:07.725Z,53.95
2022-12-03T19:03:10.289Z,58.15
2022-12-03T19:05:12.123Z,59.28
2022-12-03T19:07:14.436Z,63.28
2022-12-03T19:09:16.575Z,51.65
2022-12-03T19:11:18.414Z,61.22
2022-12-03T19:13:20.177Z,56.65
2022-12-03T19:15:21.869Z,56.97
2022-12-03T19:17:23.728Z,61.78
2022-12-03T19:19:25.604Z,74.15
2022-12-03T19:21:32.166Z,60.97
2022-12-03T19:23:36.435Z,68.35
2022-12-03T19:25:38.216Z,68.28
2022-12-03T19:27:39.963Z,73.72
2022-12-03T19:29:42.006Z,65.00
2022-12-03T19:31:43.768Z,64.75
2022-12-03T19:33:45.641Z,74.97
2022-12-03T19:35:47.389Z,65.35
2022-12-03T19:37:50.007Z,61.60
2022-12-03T19:39:54.967Z,62.90
2022-12-03T19:41:56.972Z,59.38
2022-12-03T19:43:59.056Z,64.82
2022-12-03T19:46:05.218Z,62.08
2022-12-03T19:48:07.187Z,59.83
2022-12-03T19:50:09.664Z,60.78
2022-12-03T19:52:11.403Z,62.67
2022-12-03T19:54:13.601Z,62.00
2022-12-03T19:56:18.117Z,68.03
2022-12-03T19:58:19.879Z,64.63
2022-12-03T20:00:21.780Z,60.97
2022-12-03T20:02:23.781Z,62.83
2022-12-03T20:04:25.568Z,59.38
2022-12-03T20:06:31.475Z,57.47
2022-12-03T20:08:33.376Z,57.22
2022-12-03T20:10:35.724Z,51.85
2022-12-03T20:12:37.605Z,54.40
2022-12-03T20:14:39.429Z,53.97
2022-12-03T20:16:41.606Z,57.90
2022-12-03T20:18:45.481Z,58.35
2022-12-03T20:20:47.229Z,57.05
2022-12-03T20:22:48.972Z,61.05
2022-12-03T20:24:50.791Z,68.47
2022-12-03T20:26:52.727Z,76.72
2022-12-03T20:28:55.145Z,54.80
2022-12-03T20:30:58.867Z,62.17
2022-12-03T20:33:00.898Z,58.63
2022-12-03T20:35:02.613Z,71.93
2022-12-03T20:37:04.639Z,78.75
2022-12-03T20:39:07.708Z,61.03
2022-12-03T20:41:17.550Z,65.00
2022-12-03T20:43:19.472Z,75.90
2022-12-03T20:45:21.285Z,108.90
2022-12-03T20:47:23.153Z,73.47
2022-12-03T20:49:24.866Z,74.57
2022-12-03T20:51:29.187Z,73.32
2022-12-03T20:53:30.971Z,86.03
2022-12-03T20:55:33.378Z,83.90
2022-12-03T20:57:35.059Z,56.70
2022-12-03T20:59:36.897Z,80.50
2022-12-03T21:01:39.181Z,69.28
2022-12-03T21:03:41.087Z,65.82
2022-12-03T21:05:42.984Z,76.40
2022-12-03T21:07:45.073Z,68.15
2022-12-03T21:09:46.927Z,59.63
2022-12-03T21:11:48.734Z,67.63
2022-12-03T21:13:51.001Z,75.32
2022-12-03T21:16:06.649Z,78.65
2022-12-03T21:18:09.921Z,62.72
2022-12-03T21:20:14.533Z,84.40
2022-12-03T21:22:18.427Z,64.32
2022-12-03T21:24:20.251Z,62.78
2022-12-03T21:26:22.288Z,63.20
2022-12-03T21:28:24.185Z,61.50
2022-12-03T21:30:26.026Z,57.80
2022-12-03T21:32:27.732Z,58.78
2022-12-03T21:34:35.948Z,57.38
2022-12-03T21:36:38.284Z,53.33
2022-12-03T21:38:40.530Z,58.00
2022-12-03T21:40:42.370Z,56.22
2022-12-03T21:42:44.203Z,57.17
2022-12-03T21:44:46.928Z,56.63
2022-12-03T21:47:09.264Z,53.07
2022-12-03T21:49:10.480Z,55.13
2022-12-03T21:51:14.358Z,54.95
2022-12-03T21:53:16.278Z,50.50
2022-12-03T21:55:18.253Z,53.55
2022-12-03T21:57:20.008Z,57.20
2022-12-03T21:59:21.966Z,53.22
2022-12-03T22:01:24.693Z,53.80
2022-12-03T22:03:26.513Z,51.63
2022-12-03T22:05:28.338Z,54.95
2022-12-03T22:07:33.430Z,56.28
2022-12-03T22:09:35.346Z,54.60
2022-12-03T22:11:37.181Z,57.92
2022-12-03T22:13:39.609Z,55.17
2022-12-03T22:15:41.320Z,52.72
2022-12-03T22:17:43.092Z,55.72
2022-12-03T22:19:44.840Z,52.45
2022-12-03T22:21:46.516Z,51.50
2022-12-03T22:23:48.329Z,53.00
2022-12-03T22:26:01.079Z,52.95
2022-12-03T22:28:02.819Z,54.88
2022-12-03T22:30:06.205Z,50.55
2022-12-03T22:32:07.984Z,48.75
2022-12-03T22:34:09.744Z,42.13
2022-12-03T22:36:19.646Z,47.17
2022-12-03T22:38:22.557Z,45.17
2022-12-03T22:40:24.260Z,43.90
2022-12-03T22:42:26.057Z,43.33
2022-12-03T22:44:27.982Z,48.17
2022-12-03T22:46:29.714Z,44.35
2022-12-03T22:48:34.175Z,48.72
2022-12-03T22:50:42.461Z,47.67
2022-12-03T22:52:44.177Z,48.20
2022-12-03T22:54:46.065Z,47.10
2022-12-03T22:56:47.904Z,44.97
2022-12-03T22:58:49.821Z,43.13
2022-12-03T23:00:52.932Z,44.75
2022-12-03T23:02:54.953Z,45.08
2022-12-03T23:04:56.662Z,50.03
2022-12-03T23:06:58.473Z,47.22
2022-12-03T23:09:00.303Z,49.40
2022-12-03T23:11:02.000Z,45.83
2022-12-03T23:13:05.927Z,38.45
2022-12-03T23:15:08.580Z,42.67
2022-12-03T23:17:10.266Z,43.08
2022-12-03T23:19:12.215Z,41.35
2022-12-03T23:21:28.903Z,42.60
2022-12-03T23:23:30.918Z,45.90
2022-12-03T23:25:32.626Z,44.83
2022-12-03T23:27:34.479Z,47.10
2022-12-03T23:29:36.187Z,46.72
2022-12-03T23:31:37.985Z,47.65
2022-12-03T23:33:39.776Z,42.38
2022-12-03T23:35:41.497Z,44.70
2022-12-03T23:37:43.668Z,43.90
2022-12-03T23:39:48.064Z,44.00
2022-12-03T23:41:53.604Z,44.85
2022-12-03T23:43:56.303Z,44.78
2022-12-03T23:46:06.559Z,47.23
2022-12-03T23:48:08.282Z,42.42
2022-12-03T23:50:10.576Z,41.92
2022-12-03T23:52:12.321Z,42.60
2022-12-03T23:54:14.023Z,43.05
2022-12-03T23:56:18.805Z,45.03
2022-12-03T23:58:20.757Z,42.55
